Time;durP1;ratioP1;P1;durP2;ratioP2;P2;SDS_P1;SDS_P2;PMS_P1;PMS_P2;Temp;Humidity;BMP_temperature;BMP_pressure;BME280_temperature;BME280_humidity;BME280_pressure;Samples;Min_cycle;Max_cycle;Signal;HPM_P1;HPM_P2
2022/10/21 00:00:34;;;;;;;14.60;10.05;;;17.70;74.70;;;;;;4801933;29;20560;-53
2022/10/21 00:03:01;;;;;;;13.18;9.65;;;17.70;74.80;;;;;;4804797;29;20146;-51
2022/10/21 00:05:28;;;;;;;16.67;9.32;;;17.70;74.80;;;;;;4804610;29;20497;-51
2022/10/21 00:07:55;;;;;;;16.55;9.55;;;17.70;74.90;;;;;;4805536;29;20523;-53
2022/10/21 00:10:21;;;;;;;12.43;8.65;;;17.70;75.00;;;;;;4804840;29;20043;-54
2022/10/21 00:12:48;;;;;;;13.35;9.80;;;17.70;75.00;;;;;;4805356;29;20420;-50
2022/10/21 00:15:15;;;;;;;13.43;9.88;;;17.70;75.00;;;;;;4803526;29;20057;-51
2022/10/21 00:17:49;;;;;;;13.32;10.02;;;17.70;75.00;;;;;;4800282;29;20059;-53
2022/10/21 00:20:17;;;;;;;12.75;9.13;;;17.70;75.10;;;;;;4804040;29;20064;-49
2022/10/21 00:22:44;;;;;;;11.80;9.52;;;17.70;74.60;;;;;;4804948;29;20461;-51
2022/10/21 00:25:11;;;;;;;13.02;9.68;;;17.60;74.50;;;;;;4803193;29;20497;-50
2022/10/21 00:27:40;;;;;;;13.95;9.23;;;17.60;74.40;;;;;;4802494;29;20050;-51
2022/10/21 00:30:08;;;;;;;16.35;10.23;;;17.50;74.30;;;;;;4804624;29;20078;-53
2022/10/21 00:32:39;;;;;;;11.60;9.23;;;17.50;74.40;;;;;;4800434;29;20051;-51
2022/10/21 00:35:08;;;;;;;12.38;9.07;;;17.40;74.20;;;;;;4802474;29;20043;-50
2022/10/21 00:37:41;;;;;;;12.32;9.68;;;17.40;74.30;;;;;;4799734;29;20103;-53
2022/10/21 00:40:08;;;;;;;14.18;9.38;;;17.40;74.40;;;;;;4804696;29;20043;-54
2022/10/21 00:42:38;;;;;;;12.48;10.30;;;17.30;74.30;;;;;;4804126;29;20054;-50
2022/10/21 00:45:17;;;;;;;13.40;9.05;;;17.20;74.30;;;;;;4800807;29;20045;-49
2022/10/21 00:48:02;;;;;;;15.35;10.25;;;17.20;74.40;;;;;;4799933;29;20134;-52
2022/10/21 00:50:47;;;;;;;10.82;9.18;;;17.20;74.30;;;;;;4797617;29;20047;-52
2022/10/21 00:53:15;;;;;;;10.52;7.80;;;17.10;73.90;;;;;;4801404;29;20053;-53
2022/10/21 00:55:51;;;;;;;12.90;8.90;;;17.00;73.70;;;;;;4801150;29;20070;-51
2022/10/21 00:58:22;;;;;;;14.45;8.45;;;17.00;73.70;;;;;;4803643;29;21477;-52
2022/10/21 01:00:50;;;;;;;9.85;7.43;;;16.90;73.50;;;;;;4804156;29;20420;-50
2022/10/21 01:03:17;;;;;;;11.95;7.70;;;16.90;73.30;;;;;;4801872;29;20448;-52
2022/10/21 01:05:44;;;;;;;13.25;9.18;;;16.80;73.40;;;;;;4801806;29;20053;-53
2022/10/21 01:08:16;;;;;;;10.90;8.10;;;16.70;73.30;;;;;;4804858;29;20047;-54
2022/10/21 01:10:49;;;;;;;10.70;7.13;;;16.70;73.30;;;;;;4802348;29;20074;-52
2022/10/21 01:13:33;;;;;;;11.20;8.57;;;16.60;73.00;;;;;;4801967;29;20078;-54
2022/10/21 01:16:28;;;;;;;11.02;7.75;;;16.60;73.30;;;;;;4801655;29;20125;-54
2022/10/21 01:19:13;;;;;;;11.90;8.32;;;16.50;73.50;;;;;;4799882;29;20053;-52
2022/10/21 01:21:49;;;;;;;13.13;7.30;;;16.50;73.50;;;;;;4804461;29;20043;-52
2022/10/21 01:24:46;;;;;;;11.32;7.70;;;16.40;73.30;;;;;;4798381;29;20057;-52
2022/10/21 01:27:38;;;;;;;8.68;7.30;;;16.40;73.10;;;;;;4804083;29;20126;-51
2022/10/21 01:30:33;;;;;;;10.87;7.57;;;16.30;73.20;;;;;;4801287;29;20054;-51
2022/10/21 01:33:09;;;;;;;10.25;7.22;;;16.30;73.20;;;;;;4796380;29;20055;-52
2022/10/21 01:36:08;;;;;;;10.80;7.55;;;16.20;73.00;;;;;;4798147;29;20051;-55
2022/10/21 01:39:10;;;;;;;9.35;6.82;;;16.20;73.00;;;;;;4797241;29;20078;-52
2022/10/21 01:41:54;;;;;;;10.25;7.45;;;16.10;72.90;;;;;;4802881;29;20057;-53
2022/10/21 01:44:36;;;;;;;7.75;6.53;;;16.10;72.90;;;;;;4801687;29;20068;-52
2022/10/21 01:47:19;;;;;;;9.80;6.50;;;16.00;72.80;;;;;;4804295;29;20042;-50
2022/10/21 01:49:58;;;;;;;8.23;6.20;;;16.00;72.50;;;;;;4801564;29;20055;-50
2022/10/21 01:52:25;;;;;;;9.18;6.90;;;15.90;72.40;;;;;;4797702;29;20134;-53
2022/10/21 01:54:58;;;;;;;11.23;7.20;;;15.80;72.50;;;;;;4801397;29;20046;-50
2022/10/21 01:57:32;;;;;;;9.52;7.10;;;15.80;72.50;;;;;;4804024;29;20562;-53
2022/10/21 02:00:07;;;;;;;11.85;6.88;;;15.80;72.70;;;;;;4797818;29;20116;-49
2022/10/21 02:02:42;;;;;;;10.68;7.60;;;15.70;72.60;;;;;;4803302;29;20175;-50
2022/10/21 02:05:21;;;;;;;10.70;6.97;;;15.70;72.70;;;;;;4803237;29;20069;-51
2022/10/21 02:07:49;;;;;;;9.57;7.00;;;15.70;72.80;;;;;;4818401;29;20046;-51
2022/10/21 02:10:18;;;;;;;7.75;6.95;;;15.60;72.70;;;;;;4803911;29;20043;-49
2022/10/21 02:12:48;;;;;;;11.02;6.53;;;15.60;72.80;;;;;;4800328;29;20055;-53
2022/10/21 02:15:16;;;;;;;7.82;6.30;;;15.50;72.80;;;;;;4802876;29;20058;-52
2022/10/21 02:17:53;;;;;;;10.55;7.47;;;15.50;72.80;;;;;;4810912;29;20454;-49
2022/10/21 02:20:25;;;;;;;10.80;7.07;;;15.50;73.00;;;;;;4808483;29;20043;-50
2022/10/21 02:22:52;;;;;;;10.10;7.32;;;15.50;73.00;;;;;;4802406;29;20126;-53
2022/10/21 02:25:26;;;;;;;10.63;6.88;;;15.50;73.00;;;;;;4802652;29;20049;-51
2022/10/21 02:27:54;;;;;;;8.73;6.90;;;15.50;73.10;;;;;;4799662;29;20047;-51
2022/10/21 02:30:22;;;;;;;7.93;6.80;;;15.50;72.90;;;;;;4798962;29;20125;-53
2022/10/21 02:33:04;;;;;;;7.97;6.20;;;15.40;73.20;;;;;;4795310;29;20497;-51
2022/10/21 02:35:43;;;;;;;8.70;6.80;;;15.40;72.80;;;;;;4802748;29;20051;-51
2022/10/21 02:38:29;;;;;;;11.27;7.07;;;15.40;72.70;;;;;;4809325;29;20042;-50
2022/10/21 02:41:05;;;;;;;6.75;6.03;;;15.30;72.70;;;;;;4805150;29;20055;-51
2022/10/21 02:43:52;;;;;;;7.85;5.82;;;15.30;72.70;;;;;;4802724;29;20045;-50
2022/10/21 02:46:19;;;;;;;8.57;7.68;;;15.30;72.60;;;;;;4803165;29;20053;-51
2022/10/21 02:48:47;;;;;;;9.38;5.93;;;15.20;72.70;;;;;;4796768;29;20051;-52
2022/10/21 02:51:14;;;;;;;8.82;7.10;;;15.20;72.80;;;;;;4802683;29;20061;-51
2022/10/21 02:53:41;;;;;;;8.25;6.68;;;15.20;72.80;;;;;;4802794;29;20532;-51
2022/10/21 02:56:08;;;;;;;8.95;6.80;;;15.20;72.70;;;;;;4802622;29;20110;-49
2022/10/21 02:58:35;;;;;;;8.00;6.60;;;15.10;72.60;;;;;;4803563;29;20572;-52
2022/10/21 03:01:01;;;;;;;11.90;7.18;;;15.10;73.30;;;;;;4805160;29;20052;-52
2022/10/21 03:03:28;;;;;;;6.55;5.60;;;15.10;72.80;;;;;;4806024;29;20047;-52
2022/10/21 03:05:56;;;;;;;7.85;6.45;;;15.00;72.70;;;;;;4802432;29;20057;-51
2022/10/21 03:08:22;;;;;;;7.30;5.80;;;15.00;72.70;;;;;;4802617;29;20556;-50
2022/10/21 03:10:49;;;;;;;7.20;6.28;;;15.00;73.30;;;;;;4806404;29;20073;-50
2022/10/21 03:13:19;;;;;;;6.63;5.93;;;15.00;72.80;;;;;;4806240;29;20046;-53
2022/10/21 03:15:48;;;;;;;9.02;6.10;;;15.00;72.70;;;;;;4800752;29;20535;-51
2022/10/21 03:18:15;;;;;;;7.40;6.30;;;14.90;72.60;;;;;;4806156;29;20126;-50
2022/10/21 03:20:42;;;;;;;7.07;5.03;;;14.90;72.50;;;;;;4805891;29;20070;-50
2022/10/21 03:23:11;;;;;;;7.82;5.47;;;14.90;72.40;;;;;;4800943;29;20043;-51
2022/10/21 03:25:38;;;;;;;8.23;6.45;;;14.90;72.50;;;;;;4803076;29;20047;-52
2022/10/21 03:28:05;;;;;;;9.13;5.97;;;14.90;72.50;;;;;;4803459;29;20050;-51
2022/10/21 03:30:31;;;;;;;9.13;5.60;;;14.80;72.50;;;;;;4805525;29;20118;-54
2022/10/21 03:32:58;;;;;;;6.55;5.43;;;14.80;72.60;;;;;;4801810;29;20043;-54
2022/10/21 03:35:25;;;;;;;6.50;5.82;;;14.80;72.80;;;;;;4805008;29;20071;-52
2022/10/21 03:37:52;;;;;;;8.95;6.68;;;14.80;73.00;;;;;;4806177;29;20129;-53
2022/10/21 03:40:19;;;;;;;9.05;5.35;;;14.70;73.00;;;;;;4806050;29;20043;-52
2022/10/21 03:42:46;;;;;;;8.00;5.50;;;14.70;73.20;;;;;;4800390;29;20520;-51
2022/10/21 03:45:12;;;;;;;8.02;5.32;;;14.70;73.10;;;;;;4801605;29;20047;-52
2022/10/21 03:47:39;;;;;;;10.00;5.55;;;14.70;73.10;;;;;;4806284;29;20046;-50
2022/10/21 03:50:06;;;;;;;9.35;5.65;;;14.70;73.20;;;;;;4805222;29;20062;-51
2022/10/21 03:52:39;;;;;;;6.63;5.45;;;14.70;73.50;;;;;;4804268;29;20043;-50
2022/10/21 03:55:07;;;;;;;8.20;5.85;;;14.70;73.60;;;;;;4804360;29;20078;-49
2022/10/21 03:57:35;;;;;;;6.95;5.22;;;14.70;73.90;;;;;;4805387;29;20065;-52
2022/10/21 04:00:04;;;;;;;10.55;5.75;;;14.70;74.00;;;;;;4804874;29;20051;-50
2022/10/21 04:02:40;;;;;;;7.20;4.88;;;14.80;74.10;;;;;;4801554;29;20055;-53
2022/10/21 04:05:10;;;;;;;6.93;4.93;;;14.80;74.10;;;;;;4802827;29;20111;-51
2022/10/21 04:07:36;;;;;;;7.53;4.70;;;14.80;74.00;;;;;;4806102;29;20047;-49
2022/10/21 04:10:04;;;;;;;6.78;5.00;;;14.80;74.40;;;;;;4804707;29;20043;-50
2022/10/21 04:12:31;;;;;;;8.15;5.20;;;14.80;74.10;;;;;;4803060;29;20039;-53
2022/10/21 04:14:57;;;;;;;6.82;4.90;;;14.90;74.10;;;;;;4801691;29;20054;-53
2022/10/21 04:17:25;;;;;;;6.88;5.60;;;14.90;74.20;;;;;;4808514;29;20417;-51
2022/10/21 04:19:51;;;;;;;6.97;4.97;;;14.90;74.20;;;;;;4808407;29;20134;-52
2022/10/21 04:22:18;;;;;;;6.72;5.53;;;14.90;74.40;;;;;;4799696;29;20050;-51
2022/10/21 04:24:47;;;;;;;6.15;4.50;;;14.90;74.50;;;;;;4803862;29;20043;-53
2022/10/21 04:27:14;;;;;;;6.05;4.60;;;15.00;74.50;;;;;;4804815;29;20552;-50
2022/10/21 04:29:41;;;;;;;5.68;4.32;;;15.00;74.40;;;;;;4802175;29;20869;-51
2022/10/21 04:32:07;;;;;;;6.60;4.68;;;15.00;74.20;;;;;;4798881;29;20055;-49
2022/10/21 04:34:34;;;;;;;7.65;4.55;;;15.00;74.10;;;;;;4802304;29;20054;-50
2022/10/21 04:37:03;;;;;;;4.38;3.97;;;15.10;74.00;;;;;;4804379;29;20055;-51
2022/10/21 04:39:31;;;;;;;4.22;3.83;;;15.00;73.90;;;;;;4801535;29;20051;-53
2022/10/21 04:41:58;;;;;;;6.32;4.22;;;15.10;73.80;;;;;;4803424;29;20054;-55
2022/10/21 04:44:25;;;;;;;7.30;4.40;;;15.00;73.60;;;;;;4802565;29;20122;-54
2022/10/21 04:46:51;;;;;;;9.25;4.10;;;15.00;73.60;;;;;;4804248;29;20117;-50
2022/10/21 04:49:18;;;;;;;5.70;4.50;;;15.00;73.50;;;;;;4801492;29;20050;-51
2022/10/21 04:51:46;;;;;;;7.35;3.70;;;15.00;73.40;;;;;;4803588;29;20466;-51
2022/10/21 04:54:15;;;;;;;10.38;4.35;;;15.00;73.30;;;;;;4801046;29;20125;-50
2022/10/21 04:56:41;;;;;;;6.05;4.05;;;15.00;73.20;;;;;;4803078;29;20067;-54
2022/10/21 04:59:09;;;;;;;9.70;4.60;;;14.90;73.10;;;;;;4798821;29;20051;-53
2022/10/21 05:01:36;;;;;;;6.80;4.32;;;14.90;73.00;;;;;;4803079;29;20229;-53
2022/10/21 05:04:04;;;;;;;5.15;4.13;;;14.90;72.90;;;;;;4802788;29;20057;-53
2022/10/21 05:06:31;;;;;;;6.32;4.25;;;14.90;72.80;;;;;;4805034;29;20046;-53
2022/10/21 05:08:58;;;;;;;4.07;3.63;;;14.80;72.80;;;;;;4802404;29;20420;-50
2022/10/21 05:11:24;;;;;;;5.90;3.47;;;14.80;72.70;;;;;;4803926;29;20390;-54
2022/10/21 05:13:51;;;;;;;4.38;3.60;;;14.80;72.80;;;;;;4803363;29;20510;-50
2022/10/21 05:16:18;;;;;;;3.75;3.40;;;14.80;72.90;;;;;;4806279;29;20042;-53
2022/10/21 05:18:44;;;;;;;3.95;3.47;;;14.70;72.80;;;;;;4796979;29;20050;-52
2022/10/21 05:21:11;;;;;;;5.05;3.65;;;14.70;72.80;;;;;;4801837;29;20470;-54
2022/10/21 05:23:38;;;;;;;4.55;3.55;;;14.70;72.70;;;;;;4795111;29;20291;-54
2022/10/21 05:26:04;;;;;;;4.82;3.35;;;14.70;72.80;;;;;;4802233;29;20051;-53
2022/10/21 05:28:31;;;;;;;3.53;3.08;;;14.70;72.80;;;;;;4808633;29;20038;-51
2022/10/21 05:30:58;;;;;;;7.85;2.92;;;14.60;72.80;;;;;;4801965;29;20508;-54
2022/10/21 05:33:24;;;;;;;7.75;3.97;;;14.60;72.90;;;;;;4797059;29;20058;-51
2022/10/21 05:36:03;;;;;;;4.40;3.80;;;14.60;73.00;;;;;;4800996;29;20166;-51
2022/10/21 05:38:30;;;;;;;4.63;3.00;;;14.60;73.30;;;;;;4795671;29;20050;-53
2022/10/21 05:40:59;;;;;;;3.75;3.05;;;14.60;73.40;;;;;;4802580;29;20424;-53
2022/10/21 05:43:28;;;;;;;4.40;3.35;;;14.60;73.40;;;;;;4799971;29;20420;-53
2022/10/21 05:45:54;;;;;;;4.25;3.20;;;14.60;73.50;;;;;;4798521;29;20043;-50
2022/10/21 05:48:21;;;;;;;5.18;3.20;;;14.60;73.70;;;;;;4802032;29;20054;-52
2022/10/21 05:50:52;;;;;;;5.97;3.28;;;14.60;73.70;;;;;;4800419;29;20049;-53
2022/10/21 05:53:19;;;;;;;3.97;3.33;;;14.70;73.90;;;;;;4796267;29;20044;-51
2022/10/21 05:56:03;;;;;;;4.00;3.45;;;14.70;74.00;;;;;;4795676;29;20058;-52
2022/10/21 05:58:31;;;;;;;3.00;2.67;;;14.80;74.60;;;;;;4801159;29;20046;-53
2022/10/21 06:00:59;;;;;;;6.03;3.67;;;14.80;74.50;;;;;;4800977;29;20050;-53
2022/10/21 06:03:29;;;;;;;4.72;3.33;;;14.80;74.60;;;;;;4801311;29;20053;-52
2022/10/21 06:05:57;;;;;;;3.50;3.20;;;14.90;74.80;;;;;;4795178;29;20073;-50
2022/10/21 06:08:24;;;;;;;5.20;3.72;;;14.90;74.80;;;;;;4796599;29;20039;-53
2022/10/21 06:11:14;;;;;;;3.20;2.95;;;15.00;74.90;;;;;;4801044;29;20428;-52
2022/10/21 06:13:41;;;;;;;4.47;3.47;;;15.00;75.20;;;;;;4798816;29;20764;-54
2022/10/21 06:16:09;;;;;;;4.47;4.07;;;15.10;75.00;;;;;;4800429;29;20057;-51
2022/10/21 06:18:36;;;;;;;5.78;4.05;;;15.10;75.10;;;;;;4803147;29;20051;-50
2022/10/21 06:21:05;;;;;;;3.80;3.28;;;15.20;75.20;;;;;;4800741;29;20057;-52
2022/10/21 06:23:32;;;;;;;8.48;4.03;;;15.20;75.30;;;;;;4796865;29;20054;-52
2022/10/21 06:26:10;;;;;;;5.30;3.92;;;15.20;75.30;;;;;;4800612;29;20047;-51
2022/10/21 06:28:39;;;;;;;7.10;3.95;;;15.30;75.40;;;;;;4802183;29;20411;-50
2022/10/21 06:31:11;;;;;;;4.28;3.60;;;15.30;75.40;;;;;;4800040;29;20739;-51
2022/10/21 06:33:37;;;;;;;4.18;3.28;;;15.40;75.50;;;;;;4792325;29;20058;-51
2022/10/21 06:36:04;;;;;;;4.28;3.45;;;15.40;75.30;;;;;;4800954;29;20047;-52
2022/10/21 06:38:32;;;;;;;3.75;3.35;;;15.50;75.20;;;;;;4804973;29;20046;-50
2022/10/21 06:41:07;;;;;;;7.10;3.60;;;15.50;75.20;;;;;;4820238;29;20404;-53
2022/10/21 06:43:38;;;;;;;3.47;3.17;;;15.60;75.30;;;;;;4798760;29;20065;-50
2022/10/21 06:46:08;;;;;;;4.07;3.03;;;15.60;75.10;;;;;;4802140;29;20121;-54
2022/10/21 06:48:34;;;;;;;5.20;3.75;;;15.60;75.10;;;;;;4801922;29;20043;-50
2022/10/21 06:51:05;;;;;;;5.82;3.55;;;15.70;75.20;;;;;;4798027;29;20471;-51
2022/10/21 06:53:32;;;;;;;6.78;3.95;;;15.70;75.20;;;;;;4794601;29;20535;-51
2022/10/21 06:56:10;;;;;;;5.30;3.75;;;15.70;75.20;;;;;;4802774;29;20119;-52
2022/10/21 06:58:38;;;;;;;6.13;4.55;;;15.70;75.40;;;;;;4799667;29;20069;-50
2022/10/21 07:01:07;;;;;;;4.90;3.72;;;15.70;75.40;;;;;;4801932;29;20057;-52
2022/10/21 07:03:53;;;;;;;5.20;3.58;;;15.80;75.60;;;;;;4801890;29;20050;-50
2022/10/21 07:06:21;;;;;;;9.68;4.30;;;15.80;75.50;;;;;;4798419;29;20407;-50
2022/10/21 07:08:49;;;;;;;7.13;4.32;;;15.90;75.70;;;;;;4799504;29;20534;-52
2022/10/21 07:11:24;;;;;;;6.05;4.18;;;15.90;75.90;;;;;;4796048;29;20134;-50
2022/10/21 07:13:51;;;;;;;5.93;4.35;;;15.90;75.90;;;;;;4801907;29;20456;-53
2022/10/21 07:16:24;;;;;;;6.65;4.47;;;15.90;75.90;;;;;;4804167;29;20049;-54
2022/10/21 07:18:51;;;;;;;10.05;5.35;;;16.00;76.20;;;;;;4802420;29;20047;-50
2022/10/21 07:21:20;;;;;;;5.63;3.83;;;16.00;76.00;;;;;;4802211;29;20055;-52
2022/10/21 07:23:50;;;;;;;5.88;3.78;;;16.10;76.10;;;;;;4801418;29;20054;-50
2022/10/21 07:26:20;;;;;;;5.50;4.13;;;16.10;76.00;;;;;;4802790;29;20080;-52
2022/10/21 07:28:47;;;;;;;6.07;4.05;;;16.10;76.10;;;;;;4794609;29;20059;-50
2022/10/21 07:31:15;;;;;;;4.25;3.65;;;16.20;76.10;;;;;;4800883;29;20062;-52
2022/10/21 07:33:42;;;;;;;7.05;4.38;;;16.20;76.10;;;;;;4801590;29;20073;-51
2022/10/21 07:36:12;;;;;;;5.35;4.00;;;16.20;76.10;;;;;;4801470;29;20051;-53
2022/10/21 07:38:45;;;;;;;5.95;3.80;;;16.30;76.30;;;;;;4794105;29;20086;-54
2022/10/21 07:41:24;;;;;;;4.40;3.60;;;16.30;76.30;;;;;;4803235;29;20067;-52
2022/10/21 07:43:52;;;;;;;7.78;4.00;;;16.40;76.60;;;;;;4804900;29;20708;-50
2022/10/21 07:46:20;;;;;;;7.90;3.90;;;16.30;76.20;;;;;;4803899;29;20063;-52
2022/10/21 07:48:48;;;;;;;4.72;3.78;;;16.40;76.20;;;;;;4799316;29;20485;-51
2022/10/21 07:51:17;;;;;;;7.55;4.00;;;16.40;76.20;;;;;;4805242;29;20532;-54
2022/10/21 07:53:45;;;;;;;9.95;3.50;;;16.50;76.30;;;;;;4805498;29;20051;-52
2022/10/21 07:56:16;;;;;;;4.40;3.58;;;16.50;76.30;;;;;;4804045;29;20178;-51
2022/10/21 07:58:45;;;;;;;6.17;3.70;;;16.50;76.40;;;;;;4802447;29;20520;-55
2022/10/21 08:01:14;;;;;;;8.32;4.22;;;16.60;76.30;;;;;;4805566;29;20055;-54
2022/10/21 08:03:41;;;;;;;7.65;3.92;;;16.60;76.40;;;;;;4802503;29;20050;-51
2022/10/21 08:06:09;;;;;;;7.63;3.85;;;16.60;76.40;;;;;;4797688;29;20047;-51
2022/10/21 08:08:40;;;;;;;5.22;3.50;;;16.60;76.40;;;;;;4799027;29;20049;-49
2022/10/21 08:11:07;;;;;;;4.70;3.92;;;16.60;76.40;;;;;;4805482;29;20075;-49
2022/10/21 08:13:35;;;;;;;8.15;3.53;;;16.70;76.50;;;;;;4803996;29;20051;-51
2022/10/21 08:16:04;;;;;;;9.18;3.42;;;16.70;76.50;;;;;;4803827;29;20139;-51
2022/10/21 08:18:31;;;;;;;5.55;3.38;;;16.70;76.70;;;;;;4803631;29;20062;-50
2022/10/21 08:20:57;;;;;;;9.85;4.15;;;16.80;76.50;;;;;;4805495;29;20046;-49
2022/10/21 08:23:25;;;;;;;7.32;3.70;;;16.80;76.50;;;;;;4803403;29;20062;-53
2022/10/21 08:25:54;;;;;;;7.60;4.38;;;16.80;76.50;;;;;;4800690;29;20042;-50
2022/10/21 08:28:22;;;;;;;6.60;4.70;;;16.90;76.60;;;;;;4804038;29;20121;-53
2022/10/21 08:30:50;;;;;;;5.10;3.55;;;16.90;76.50;;;;;;4805673;29;20130;-51
2022/10/21 08:33:17;;;;;;;6.82;4.22;;;16.90;76.40;;;;;;4803499;29;20043;-53
2022/10/21 08:35:44;;;;;;;6.25;4.50;;;16.90;76.40;;;;;;4802766;29;20057;-51
2022/10/21 08:38:11;;;;;;;8.77;4.45;;;17.00;76.60;;;;;;4803614;29;20062;-54
2022/10/21 08:40:40;;;;;;;5.55;4.43;;;17.00;76.60;;;;;;4804994;29;20057;-53
2022/10/21 08:43:21;;;;;;;9.73;4.13;;;17.10;76.70;;;;;;4802652;29;20057;-52
2022/10/21 08:45:54;;;;;;;10.52;4.78;;;17.10;77.20;;;;;;4801818;29;20427;-54
2022/10/21 08:48:28;;;;;;;8.52;4.25;;;17.20;76.80;;;;;;4804676;29;20047;-50
2022/10/21 08:50:56;;;;;;;7.05;4.13;;;17.20;77.00;;;;;;4804852;29;20077;-55
2022/10/21 08:53:35;;;;;;;7.40;4.22;;;17.30;76.90;;;;;;4799614;29;20440;-50
2022/10/21 08:56:10;;;;;;;7.05;3.55;;;17.40;77.20;;;;;;4802157;29;20047;-52
2022/10/21 08:58:47;;;;;;;7.55;4.57;;;17.40;76.90;;;;;;4804339;29;20067;-50
2022/10/21 09:01:22;;;;;;;8.13;4.55;;;17.50;76.60;;;;;;4800538;29;20051;-49
2022/10/21 09:04:04;;;;;;;9.50;4.03;;;17.50;76.70;;;;;;4795636;29;20046;-53
2022/10/21 09:06:54;;;;;;;6.72;3.50;;;17.50;76.60;;;;;;4802325;29;20401;-53
2022/10/21 09:09:36;;;;;;;7.65;3.83;;;17.60;76.40;;;;;;4803377;29;20127;-51
2022/10/21 09:12:17;;;;;;;5.32;3.65;;;17.60;76.30;;;;;;4804740;29;20131;-53
2022/10/21 09:15:04;;;;;;;5.97;3.75;;;17.60;76.20;;;;;;4802319;29;20412;-51
2022/10/21 09:17:58;;;;;;;4.75;3.22;;;17.70;76.10;;;;;;4803896;29;20054;-53
2022/10/21 09:20:56;;;;;;;9.60;4.70;;;17.70;76.60;;;;;;4804386;29;20062;-50
2022/10/21 09:23:41;;;;;;;9.18;4.47;;;17.70;76.60;;;;;;4803004;29;20047;-54
2022/10/21 09:26:20;;;;;;;6.75;3.70;;;17.70;76.40;;;;;;4804353;29;20047;-51
2022/10/21 09:28:53;;;;;;;7.15;3.92;;;17.70;76.20;;;;;;4803560;29;20096;-50
2022/10/21 09:31:20;;;;;;;10.68;4.43;;;17.70;76.00;;;;;;4800168;29;20539;-50
2022/10/21 09:33:58;;;;;;;6.95;3.50;;;17.70;76.10;;;;;;4803912;29;20412;-51
2022/10/21 09:36:46;;;;;;;10.75;5.30;;;17.70;76.40;;;;;;4803579;29;20055;-53
2022/10/21 09:39:33;;;;;;;5.30;3.75;;;17.70;76.50;;;;;;4800001;29;20062;-53
2022/10/21 09:42:00;;;;;;;6.70;4.20;;;17.70;76.30;;;;;;4798765;29;20074;-52
2022/10/21 09:44:38;;;;;;;8.10;4.38;;;17.70;76.30;;;;;;4824681;24;20508;-53
2022/10/21 09:47:19;;;;;;;7.35;4.55;;;17.70;76.50;;;;;;4803776;29;20055;-48
2022/10/21 09:49:51;;;;;;;10.80;5.05;;;17.70;76.90;;;;;;4803958;29;20537;-51
2022/10/21 09:52:34;;;;;;;10.43;4.00;;;17.70;76.80;;;;;;4799752;29;20054;-51
2022/10/21 09:55:03;;;;;;;6.72;3.90;;;17.80;77.10;;;;;;4801033;29;20046;-49
2022/10/21 09:57:56;;;;;;;11.05;4.80;;;17.80;77.20;;;;;;4785516;29;20047;-52
2022/10/21 10:00:41;;;;;;;9.85;4.93;;;17.90;77.90;;;;;;4805685;29;20055;-52
2022/10/21 10:03:08;;;;;;;10.40;5.22;;;17.90;77.90;;;;;;4782104;29;20052;-49
2022/10/21 10:05:46;;;;;;;7.53;4.32;;;18.00;77.60;;;;;;4785791;29;20049;-51
2022/10/21 10:08:33;;;;;;;7.60;5.70;;;18.00;77.90;;;;;;4785840;29;20476;-50
2022/10/21 10:11:01;;;;;;;9.32;4.22;;;18.20;78.40;;;;;;4789522;29;20108;-49
2022/10/21 10:13:30;;;;;;;8.52;3.75;;;18.20;77.70;;;;;;4780608;29;20062;-49
2022/10/21 10:16:14;;;;;;;7.70;3.75;;;18.30;77.60;;;;;;4783722;29;20054;-49
2022/10/21 10:18:42;;;;;;;5.00;3.08;;;18.40;78.00;;;;;;4783112;29;20073;-51
2022/10/21 10:21:11;;;;;;;3.65;3.13;;;18.40;77.70;;;;;;4793207;29;20055;-49
2022/10/21 10:23:53;;;;;;;6.55;3.85;;;18.50;77.70;;;;;;4782848;29;20714;-50
2022/10/21 10:26:31;;;;;;;5.00;2.83;;;18.60;77.70;;;;;;4781602;29;20071;-48
2022/10/21 10:29:09;;;;;;;5.35;3.58;;;18.70;77.60;;;;;;4789623;29;20135;-53
2022/10/21 10:31:36;;;;;;;7.15;3.40;;;18.80;77.70;;;;;;4777551;30;20473;-52
2022/10/21 10:34:06;;;;;;;4.18;3.22;;;18.80;77.20;;;;;;4781505;29;20087;-52
2022/10/21 10:36:36;;;;;;;4.55;3.50;;;18.80;77.70;;;;;;4781686;29;20158;-52
2022/10/21 10:39:16;;;;;;;9.18;4.25;;;18.90;76.90;;;;;;4786389;29;20048;-52
2022/10/21 10:41:47;;;;;;;4.45;2.22;;;19.00;76.80;;;;;;4783252;29;20055;-52
2022/10/21 10:44:35;;;;;;;7.03;2.75;;;19.00;76.90;;;;;;4781788;29;20055;-53
2022/10/21 10:47:09;;;;;;;5.25;2.40;;;19.10;76.90;;;;;;4781053;29;20055;-55
2022/10/21 10:49:40;;;;;;;3.88;2.60;;;19.10;76.90;;;;;;4784553;29;20067;-54
2022/10/21 10:52:06;;;;;;;5.05;3.25;;;19.20;76.90;;;;;;4780154;29;20051;-53
2022/10/21 10:54:33;;;;;;;4.25;2.45;;;19.30;76.70;;;;;;4778980;29;20054;-54
2022/10/21 10:57:04;;;;;;;3.33;2.70;;;19.40;76.40;;;;;;4788055;29;20051;-52
2022/10/21 10:59:42;;;;;;;5.85;2.13;;;19.50;76.40;;;;;;4783334;29;20051;-52
2022/10/21 11:02:21;;;;;;;8.77;2.30;;;19.60;76.30;;;;;;4783590;29;20051;-50
2022/10/21 11:05:19;;;;;;;5.80;2.50;;;19.70;75.60;;;;;;4794664;29;20429;-51
2022/10/21 11:08:27;;;;;;;6.60;2.58;;;19.90;75.30;;;;;;4783529;29;20134;-50
2022/10/21 11:11:04;;;;;;;4.18;1.65;;;20.00;74.90;;;;;;4783606;29;20393;-54
2022/10/21 11:13:34;;;;;;;;;;;20.20;74.70;;;;;;4778118;29;20540;-53
2022/10/21 11:16:27;;;;;;;4.40;1.30;;;20.30;74.80;;;;;;4790426;29;19925;-51
2022/10/21 11:19:23;;;;;;;1.48;0.98;;;20.40;73.10;;;;;;4787377;29;20054;-55
2022/10/21 11:22:05;;;;;;;2.85;1.38;;;20.50;72.80;;;;;;4785102;29;20043;-56
2022/10/21 11:24:36;;;;;;;3.42;1.75;;;20.60;72.50;;;;;;4794414;29;20051;-51
2022/10/21 11:27:31;;;;;;;0.80;0.80;;;20.70;71.80;;;;;;4787574;29;20176;-51
2022/10/21 11:30:44;;;;;;;2.10;0.85;;;20.80;70.70;;;;;;4784704;30;20048;-51
2022/10/21 11:33:20;;;;;;;2.85;0.70;;;20.90;70.80;;;;;;4772219;29;20131;-54
2022/10/21 11:36:10;;;;;;;1.73;1.20;;;20.90;70.40;;;;;;4799115;29;20055;-54
2022/10/21 11:38:46;;;;;;;2.03;0.65;;;21.00;70.00;;;;;;4787310;29;20055;-54
2022/10/21 11:41:29;;;;;;;1.05;0.50;;;21.00;69.60;;;;;;4785582;29;20065;-55
2022/10/21 11:44:16;;;;;;;1.00;0.60;;;21.00;69.50;;;;;;4793305;29;20126;-50
2022/10/21 11:47:11;;;;;;;2.47;0.68;;;21.10;69.00;;;;;;4787501;29;20051;-54
2022/10/21 11:49:59;;;;;;;0.90;0.52;;;21.10;69.50;;;;;;4784729;29;20112;-54
2022/10/21 11:53:22;;;;;;;1.40;0.50;;;21.10;69.40;;;;;;4785249;29;20112;-54
2022/10/21 11:56:16;;;;;;;0.60;0.52;;;21.10;69.20;;;;;;4783978;29;20047;-53
2022/10/21 11:58:45;;;;;;;1.95;0.50;;;21.10;68.70;;;;;;4788079;29;20067;-54
2022/10/21 12:01:13;;;;;;;2.97;0.68;;;21.10;69.20;;;;;;4788476;29;20133;-54
2022/10/21 12:04:12;;;;;;;0.60;0.40;;;21.20;69.40;;;;;;4791654;29;20047;-52
2022/10/21 12:06:49;;;;;;;1.10;0.40;;;21.30;68.70;;;;;;4781345;29;20047;-55
2022/10/21 12:09:29;;;;;;;1.45;0.80;;;21.40;69.30;;;;;;4769488;30;20054;-54
2022/10/21 12:12:05;;;;;;;0.50;0.50;;;21.50;69.30;;;;;;4791368;29;20128;-55
2022/10/21 12:14:33;;;;;;;0.47;0.40;;;21.70;68.20;;;;;;4786425;29;20055;-54
2022/10/21 12:17:06;;;;;;;0.65;0.50;;;21.90;68.40;;;;;;4787373;29;20050;-55
2022/10/21 12:19:34;;;;;;;1.65;0.50;;;22.10;67.60;;;;;;4791283;29;20130;-55
2022/10/21 12:22:02;;;;;;;1.75;0.20;;;22.20;67.20;;;;;;4788820;29;20715;-54
2022/10/21 12:24:58;;;;;;;0.50;0.43;;;22.40;66.30;;;;;;4786609;29;20047;-51
2022/10/21 12:27:46;;;;;;;0.57;0.30;;;22.50;65.20;;;;;;4785043;29;20047;-54
2022/10/21 12:30:20;;;;;;;2.20;0.70;;;22.60;65.00;;;;;;4785831;29;20122;-54
2022/10/21 12:33:23;;;;;;;2.65;0.77;;;22.60;64.70;;;;;;4786430;30;20138;-51
2022/10/21 12:36:18;;;;;;;0.65;0.35;;;22.70;64.40;;;;;;4768302;30;20454;-53
2022/10/21 12:38:54;;;;;;;1.95;0.47;;;22.70;64.40;;;;;;4793453;29;20043;-54
2022/10/21 12:41:39;;;;;;;0.50;0.40;;;22.70;64.70;;;;;;4787340;29;20560;-54
2022/10/21 12:44:16;;;;;;;3.08;0.70;;;22.80;65.10;;;;;;4784233;29;20058;-55
2022/10/21 12:46:55;;;;;;;0.98;0.55;;;22.80;64.80;;;;;;4787264;29;20041;-54
2022/10/21 12:49:23;;;;;;;1.27;0.40;;;22.90;64.60;;;;;;4786575;29;20061;-54
2022/10/21 12:52:02;;;;;;;1.20;0.30;;;23.00;65.10;;;;;;4785828;29;20051;-54
2022/10/21 12:54:49;;;;;;;1.05;0.40;;;23.10;64.20;;;;;;4783259;29;20813;-53
2022/10/21 12:57:35;;;;;;;0.90;0.60;;;23.20;63.80;;;;;;4786671;29;20101;-51
2022/10/21 13:00:35;;;;;;;1.90;0.70;;;23.20;63.50;;;;;;4786030;29;20043;-54
2022/10/21 13:03:04;;;;;;;1.92;0.50;;;23.20;63.50;;;;;;4785766;29;20437;-54
2022/10/21 13:05:37;;;;;;;0.75;0.75;;;23.20;63.00;;;;;;4774223;29;20061;-50
2022/10/21 13:08:19;;;;;;;0.30;0.30;;;23.20;62.40;;;;;;4785445;29;20058;-55
2022/10/21 13:11:03;;;;;;;1.90;0.50;;;23.10;62.50;;;;;;4783623;29;20047;-53
2022/10/21 13:13:42;;;;;;;0.68;0.50;;;23.10;62.60;;;;;;4792192;29;20135;-51
2022/10/21 13:16:18;;;;;;;0.77;0.40;;;23.10;62.90;;;;;;4783556;29;20063;-53
2022/10/21 13:19:02;;;;;;;0.50;0.40;;;23.00;63.00;;;;;;4786704;29;20520;-54